Time;durP1;ratioP1;P1;durP2;ratioP2;P2;SDS_P1;SDS_P2;PMS_P1;PMS_P2;Temp;Humidity;BMP_temperature;BMP_pressure;BME280_temperature;BME280_humidity;BME280_pressure;Samples;Min_cycle;Max_cycle;Signal;HPM_P1;HPM_P2
2023/09/06 00:01:27;;;;;;;8.00;7.37;;;;;;;21.35;88.33;99848.22;4998240;28;20679;-64
2023/09/06 00:03:55;;;;;;;8.53;7.53;;;;;;;21.27;88.73;99851.41;4998117;28;20205;-64
2023/09/06 00:06:22;;;;;;;8.03;7.53;;;;;;;21.17;89.37;99854.03;4998109;28;20226;-64
2023/09/06 00:08:50;;;;;;;7.97;7.47;;;;;;;21.09;89.85;99842.84;5033107;28;20189;-64
2023/09/06 00:11:17;;;;;;;7.97;7.20;;;;;;;20.93;90.65;99846.47;5029511;28;20261;-63
2023/09/06 00:13:44;;;;;;;7.50;6.90;;;;;;;20.81;91.30;99843.88;4999092;28;20198;-63
2023/09/06 00:16:11;;;;;;;7.87;7.37;;;;;;;20.67;92.08;99845.38;4997739;28;20229;-63
2023/09/06 00:18:38;;;;;;;7.77;7.27;;;;;;;20.57;93.21;99839.81;4997900;28;20725;-63
2023/09/06 00:21:05;;;;;;;7.60;7.20;;;;;;;20.44;93.98;99846.44;4996560;28;20730;-63
2023/09/06 00:23:33;;;;;;;10.90;7.80;;;;;;;20.51;94.05;99843.56;4995138;28;20218;-62
2023/09/06 00:26:01;;;;;;;8.30;7.90;;;;;;;20.54;94.64;99845.72;4995411;28;20206;-63
2023/09/06 00:28:27;;;;;;;8.20;7.50;;;;;;;20.66;95.10;99843.72;4994767;28;20195;-63
2023/09/06 00:30:56;;;;;;;7.97;7.30;;;;;;;20.76;93.34;99843.00;4994601;28;20191;-63
2023/09/06 00:33:26;;;;;;;8.33;7.60;;;;;;;20.81;93.09;99833.09;4994531;28;20226;-63
2023/09/06 00:35:53;;;;;;;7.23;6.80;;;;;;;20.83;92.55;99827.44;4995153;28;20203;-63
2023/09/06 00:38:20;;;;;;;7.10;6.53;;;;;;;20.75;92.53;99828.72;4994434;28;20195;-64
2023/09/06 00:40:51;;;;;;;7.20;6.60;;;;;;;20.76;92.91;99835.75;5012076;28;20198;-63
2023/09/06 00:43:19;;;;;;;8.53;7.93;;;;;;;20.74;92.34;99835.16;5014346;28;20198;-63
2023/09/06 00:45:49;;;;;;;6.73;6.33;;;;;;;20.67;93.64;99823.75;5014421;28;20198;-63
2023/09/06 00:48:19;;;;;;;8.27;7.77;;;;;;;20.75;94.23;99826.00;5014086;28;20233;-63
2023/09/06 00:50:50;;;;;;;7.53;6.93;;;;;;;20.80;93.96;99828.75;5014374;28;20277;-63
2023/09/06 00:53:18;;;;;;;7.13;6.80;;;;;;;20.78;94.09;99830.88;4998876;28;20190;-63
2023/09/06 00:55:45;;;;;;;8.33;6.60;;;;;;;20.77;93.93;99823.84;4994694;28;20254;-64
2023/09/06 00:58:15;;;;;;;7.23;6.73;;;;;;;20.86;93.21;99826.94;4994416;28;20203;-63
2023/09/06 01:00:43;;;;;;;7.07;6.63;;;;;;;20.87;93.24;99821.28;4995674;28;20242;-64
2023/09/06 01:03:10;;;;;;;7.47;6.97;;;;;;;20.75;93.09;99827.88;4994280;28;20195;-63
2023/09/06 01:05:42;;;;;;;7.07;6.57;;;;;;;20.77;93.08;99823.84;4994110;28;20663;-63
2023/09/06 01:08:16;;;;;;;6.83;6.33;;;;;;;20.83;93.54;99825.56;5018441;28;20205;-63
2023/09/06 01:10:43;;;;;;;6.43;6.00;;;;;;;21.00;93.92;99823.59;5033438;28;20273;-64
2023/09/06 01:13:09;;;;;;;6.93;6.53;;;;;;;21.27;92.93;99818.19;5017164;28;20452;-63
2023/09/06 01:15:38;;;;;;;6.70;6.40;;;;;;;21.47;90.45;99823.75;5013751;28;20198;-62
2023/09/06 01:18:08;;;;;;;6.70;6.10;;;;;;;21.49;89.60;99813.50;5013672;28;20256;-63
2023/09/06 01:20:41;;;;;;;7.20;6.73;;;;;;;21.36;89.47;99817.44;5013413;28;20229;-62
2023/09/06 01:23:18;;;;;;;6.80;6.27;;;;;;;21.30;90.73;99814.94;5013233;28;20626;-63
2023/09/06 01:25:46;;;;;;;7.10;6.70;;;;;;;21.23;90.13;99817.84;5009006;28;20230;-63
2023/09/06 01:28:13;;;;;;;6.10;5.70;;;;;;;21.25;91.50;99821.13;4993795;28;20223;-64
2023/09/06 01:30:40;;;;;;;6.37;6.07;;;;;;;21.46;91.17;99825.63;4993575;28;20207;-63
2023/09/06 01:33:06;;;;;;;6.17;5.77;;;;;;;21.44;89.01;99830.47;4992859;28;20292;-64
2023/09/06 01:35:33;;;;;;;7.20;6.50;;;;;;;21.43;89.95;99823.44;4993502;28;20194;-63
2023/09/06 01:38:00;;;;;;;7.00;6.50;;;;;;;21.43;88.93;99823.44;4993458;28;20741;-63
2023/09/06 01:40:27;;;;;;;6.27;5.67;;;;;;;21.33;89.51;99820.66;5003932;28;20577;-63
2023/09/06 01:42:55;;;;;;;7.17;6.43;;;;;;;21.30;89.87;99821.16;5013181;28;20248;-63
2023/09/06 01:45:22;;;;;;;7.13;6.57;;;;;;;21.21;90.37;99817.31;5012836;28;20748;-63
2023/09/06 01:47:49;;;;;;;6.20;5.90;;;;;;;21.15;90.83;99814.81;5013247;28;20257;-63
2023/09/06 01:50:19;;;;;;;7.20;6.53;;;;;;;21.13;91.05;99806.97;5013070;28;20194;-63
2023/09/06 01:52:46;;;;;;;6.67;6.30;;;;;;;21.04;90.85;99808.50;5012699;28;20229;-63
2023/09/06 01:55:12;;;;;;;8.20;6.43;;;;;;;20.98;91.21;99812.22;5010665;28;20194;-63
2023/09/06 01:57:39;;;;;;;7.00;6.40;;;;;;;20.91;91.50;99808.94;5011090;28;20222;-63
2023/09/06 02:00:22;;;;;;;6.90;6.20;;;;;;;20.93;91.63;99806.78;5011011;28;20194;-63
2023/09/06 02:02:50;;;;;;;6.67;6.17;;;;;;;21.04;91.78;99819.31;5000766;28;20183;-63
2023/09/06 02:05:17;;;;;;;7.97;7.17;;;;;;;21.09;90.83;99827.47;4993198;28;20203;-63
2023/09/06 02:07:43;;;;;;;6.73;6.07;;;;;;;21.15;90.53;99825.63;5001618;28;20275;-63
2023/09/06 02:10:10;;;;;;;6.23;5.93;;;;;;;21.28;91.43;99820.63;5012985;28;20253;-63
2023/09/06 02:12:37;;;;;;;6.47;6.07;;;;;;;21.36;90.81;99822.03;5012659;28;20236;-63
2023/09/06 02:15:06;;;;;;;5.70;5.30;;;;;;;21.39;91.18;99822.31;5010467;28;20686;-63
2023/09/06 02:17:34;;;;;;;5.80;5.40;;;;;;;21.54;90.12;99825.16;5012493;28;20229;-63
2023/09/06 02:20:12;;;;;;;6.80;6.30;;;;;;;21.76;89.39;99823.19;5012560;28;20206;-63
2023/09/06 02:22:40;;;;;;;8.97;5.57;;;;;;;21.89;87.73;99822.72;4997950;28;20190;-63
2023/09/06 02:25:08;;;;;;;7.40;5.97;;;;;;;21.95;87.52;99827.09;4992748;28;20190;-63
2023/09/06 02:27:34;;;;;;;7.47;6.17;;;;;;;22.01;87.22;99828.75;4992698;28;20293;-63
2023/09/06 02:30:02;;;;;;;8.37;5.90;;;;;;;22.01;86.96;99826.03;4993397;28;20198;-63
2023/09/06 02:32:31;;;;;;;6.53;6.00;;;;;;;21.90;87.10;99829.78;4992669;28;20234;-63
2023/09/06 02:34:59;;;;;;;6.30;6.00;;;;;;;21.82;87.24;99821.31;4992926;28;20278;-63
2023/09/06 02:37:26;;;;;;;6.90;6.50;;;;;;;21.76;87.65;99830.50;4992543;28;20637;-63
2023/09/06 02:39:53;;;;;;;6.00;5.60;;;;;;;21.69;87.75;99825.28;4992649;28;20235;-63
2023/09/06 02:42:20;;;;;;;6.90;6.30;;;;;;;21.69;89.15;99822.56;4993350;28;20277;-63
2023/09/06 02:44:47;;;;;;;7.07;6.13;;;;;;;21.71;88.37;99820.44;4991724;28;20195;-62
2023/09/06 02:47:15;;;;;;;8.37;6.17;;;;;;;21.80;89.02;99826.19;4992414;28;20321;-63
2023/09/06 02:49:42;;;;;;;8.27;6.10;;;;;;;21.89;88.18;99817.31;4992137;28;20729;-63
2023/09/06 02:52:20;;;;;;;5.83;5.43;;;;;;;21.97;88.49;99818.72;4992234;28;20201;-63
2023/09/06 02:54:47;;;;;;;6.57;5.80;;;;;;;22.10;88.15;99812.84;4993044;28;20218;-63
2023/09/06 02:57:15;;;;;;;8.87;6.10;;;;;;;22.13;87.23;99802.28;4991581;28;20260;-63
2023/09/06 02:59:41;;;;;;;6.53;5.97;;;;;;;22.01;88.09;99800.88;4992202;28;20317;-63
2023/09/06 03:02:08;;;;;;;6.77;6.00;;;;;;;21.87;88.21;99807.81;4992439;28;20190;-62
2023/09/06 03:04:37;;;;;;;6.33;5.97;;;;;;;21.73;88.74;99802.09;4992286;28;20254;-63
2023/09/06 03:07:07;;;;;;;8.13;5.93;;;;;;;21.64;89.09;99803.59;4998774;28;20292;-63
2023/09/06 03:09:35;;;;;;;6.87;6.47;;;;;;;21.55;89.53;99813.25;5022607;28;20297;-63
2023/09/06 03:12:07;;;;;;;6.53;5.93;;;;;;;21.49;89.99;99810.78;5011914;28;20205;-63
2023/09/06 03:14:38;;;;;;;5.37;5.00;;;;;;;21.47;91.11;99823.75;5011530;28;20265;-63
2023/09/06 03:17:08;;;;;;;6.43;5.93;;;;;;;21.65;91.30;99810.66;5010491;28;20198;-64
2023/09/06 03:19:38;;;;;;;6.90;6.30;;;;;;;21.88;89.33;99826.50;5010531;28;20213;-63
2023/09/06 03:22:07;;;;;;;7.50;6.10;;;;;;;22.01;88.56;99834.16;5011833;28;20217;-63
2023/09/06 03:24:35;;;;;;;7.40;6.50;;;;;;;22.02;87.52;99826.88;5011656;28;20277;-63
2023/09/06 03:27:02;;;;;;;5.83;5.53;;;;;;;21.94;87.40;99830.06;5011345;28;20202;-63
2023/09/06 03:29:30;;;;;;;6.70;5.87;;;;;;;21.82;88.06;99830.25;5008770;28;20241;-63
2023/09/06 03:31:57;;;;;;;10.40;6.07;;;;;;;21.68;89.20;99834.44;4993426;28;20361;-62
2023/09/06 03:34:24;;;;;;;7.03;6.33;;;;;;;21.60;89.79;99842.25;4992078;28;20308;-63
2023/09/06 03:36:55;;;;;;;5.47;4.90;;;;;;;21.53;90.17;99845.16;4991766;28;20355;-63
2023/09/06 03:39:28;;;;;;;9.27;6.90;;;;;;;21.38;90.94;99842.31;4991588;28;20190;-63
2023/09/06 03:41:57;;;;;;;6.57;6.07;;;;;;;21.30;91.48;99850.91;4993173;28;20559;-63
2023/09/06 03:44:24;;;;;;;6.87;6.20;;;;;;;21.27;92.21;99846.00;5003140;28;20195;-62
2023/09/06 03:46:52;;;;;;;6.57;6.07;;;;;;;21.38;93.01;99846.91;4991687;28;20274;-63
2023/09/06 03:49:18;;;;;;;7.67;6.67;;;;;;;21.54;91.52;99843.25;4991518;28;20281;-63
2023/09/06 03:51:45;;;;;;;7.50;6.90;;;;;;;21.49;90.96;99845.91;4991947;28;20195;-63
2023/09/06 03:54:12;;;;;;;6.83;6.23;;;;;;;21.37;91.46;99846.09;4996186;28;20797;-62
2023/09/06 03:56:39;;;;;;;6.50;6.10;;;;;;;21.30;92.33;99845.50;5013337;28;20194;-63
2023/09/06 03:59:08;;;;;;;7.07;6.47;;;;;;;21.25;92.98;99853.56;5015025;28;20285;-63
2023/09/06 04:01:35;;;;;;;8.63;6.83;;;;;;;21.22;93.23;99843.25;5014986;28;20201;-63
2023/09/06 04:04:01;;;;;;;9.37;6.40;;;;;;;21.24;93.80;99851.13;5013254;28;20225;-63
2023/09/06 04:06:29;;;;;;;6.80;6.00;;;;;;;21.22;93.72;99843.25;4995599;28;20281;-63
2023/09/06 04:08:56;;;;;;;8.27;6.33;;;;;;;21.22;94.06;99835.16;5032067;28;20223;-63
2023/09/06 04:11:22;;;;;;;6.77;6.13;;;;;;;21.13;94.34;99839.41;5034634;28;20197;-63
2023/09/06 04:13:51;;;;;;;6.50;6.00;;;;;;;21.11;94.32;99844.22;5016819;28;20194;-62
2023/09/06 04:16:19;;;;;;;8.53;6.33;;;;;;;21.15;94.05;99842.63;5013466;28;20190;-63
2023/09/06 04:18:45;;;;;;;11.53;6.57;;;;;;;21.15;94.51;99848.03;5014777;28;20206;-63
2023/09/06 04:21:12;;;;;;;8.17;6.80;;;;;;;21.11;94.69;99846.91;5014647;28;20245;-63
2023/09/06 04:23:39;;;;;;;10.30;6.60;;;;;;;21.17;94.75;99853.19;5015004;28;20194;-63
2023/09/06 04:26:06;;;;;;;13.30;5.70;;;;;;;21.21;94.38;99847.03;5013540;28;20197;-62
2023/09/06 04:28:33;;;;;;;10.13;6.67;;;;;;;21.30;93.22;99848.19;5014638;28;20597;-62
2023/09/06 04:31:00;;;;;;;6.13;5.53;;;;;;;21.35;92.70;99852.84;5001299;28;20191;-63
2023/09/06 04:33:28;;;;;;;8.20;5.90;;;;;;;21.35;92.45;99853.63;4994776;28;20593;-63
2023/09/06 04:35:55;;;;;;;9.50;6.20;;;;;;;21.32;92.50;99856.88;4994932;28;20194;-62
2023/09/06 04:38:23;;;;;;;24.47;7.03;;;;;;;21.31;92.19;99857.94;4994445;28;20666;-63
2023/09/06 04:40:51;;;;;;;6.40;5.87;;;;;;;21.35;92.70;99867.16;4994881;28;20213;-62
2023/09/06 04:43:19;;;;;;;10.00;5.90;;;;;;;21.38;92.23;99858.53;4995440;28;20270;-63
2023/09/06 04:45:47;;;;;;;13.47;6.97;;;;;;;21.39;91.84;99849.34;5012725;28;20736;-63
2023/09/06 04:48:16;;;;;;;6.20;5.60;;;;;;;21.50;92.39;99861.88;5014320;28;20608;-63
2023/09/06 04:50:45;;;;;;;11.00;6.43;;;;;;;21.68;92.40;99864.19;5013998;28;20244;-63
2023/09/06 04:53:13;;;;;;;9.07;6.20;;;;;;;21.90;91.46;99864.94;5014131;28;20297;-63
2023/09/06 04:55:40;;;;;;;6.23;5.60;;;;;;;22.01;90.74;99858.50;5013918;28;20198;-63
2023/09/06 04:58:08;;;;;;;6.73;5.80;;;;;;;22.33;89.45;99872.78;5003895;28;20198;-63
2023/09/06 05:00:38;;;;;;;10.37;6.73;;;;;;;22.54;88.40;99868.31;4994292;28;20257;-63
2023/09/06 05:03:08;;;;;;;8.00;5.70;;;;;;;22.82;86.31;99876.81;4994239;28;20187;-63
2023/09/06 05:05:35;;;;;;;6.07;5.57;;;;;;;22.99;85.58;99877.41;4994193;28;20221;-64
2023/09/06 05:08:03;;;;;;;6.47;5.77;;;;;;;23.11;84.25;99888.81;5015552;28;20217;-66
2023/09/06 05:10:30;;;;;;;9.43;6.67;;;;;;;23.19;84.79;99884.78;5031335;28;20288;-63
2023/09/06 05:12:57;;;;;;;9.57;5.70;;;;;;;23.21;84.33;99885.34;4993509;28;20556;-63
2023/09/06 05:15:23;;;;;;;9.37;6.10;;;;;;;23.14;83.45;99891.00;4993717;28;20188;-63
2023/09/06 05:17:50;;;;;;;6.27;5.87;;;;;;;23.00;83.75;99895.31;4993952;28;20754;-63
2023/09/06 05:20:25;;;;;;;8.87;6.10;;;;;;;22.88;84.47;99902.84;4993858;28;20257;-63
2023/09/06 05:22:51;;;;;;;7.20;6.73;;;;;;;22.90;84.88;99903.38;4993702;28;20205;-63
2023/09/06 05:25:19;;;;;;;10.50;6.60;;;;;;;22.86;85.11;99896.88;5001496;28;20230;-63
2023/09/06 05:27:46;;;;;;;9.23;6.23;;;;;;;22.77;85.10;99908.47;5013246;28;20292;-63
2023/09/06 05:30:14;;;;;;;8.83;6.73;;;;;;;22.65;85.45;99913.28;5012821;28;20749;-62
2023/09/06 05:32:40;;;;;;;9.30;6.07;;;;;;;22.54;85.62;99911.63;5013292;28;20271;-63
2023/09/06 05:35:08;;;;;;;9.80;8.83;;;;;;;22.48;86.27;99908.09;5013091;28;20245;-63
2023/09/06 05:37:35;;;;;;;7.97;6.87;;;;;;;22.45;86.90;99914.00;5012881;28;20252;-63
2023/09/06 05:40:03;;;;;;;6.97;6.27;;;;;;;22.37;87.28;99910.97;4997724;28;20199;-63
2023/09/06 05:42:32;;;;;;;6.83;6.33;;;;;;;22.29;88.09;99914.97;4993500;28;20225;-63
2023/09/06 05:44:59;;;;;;;7.77;6.87;;;;;;;22.36;87.46;99920.16;4993038;28;20199;-63
2023/09/06 05:47:25;;;;;;;6.67;6.20;;;;;;;22.43;86.94;99916.16;4993540;28;20195;-63
2023/09/06 05:49:55;;;;;;;7.27;6.37;;;;;;;22.40;87.06;99913.97;4993038;28;20262;-63
2023/09/06 05:52:22;;;;;;;8.17;6.40;;;;;;;22.35;87.14;99911.25;4996067;28;20222;-62
2023/09/06 05:54:49;;;;;;;9.00;7.03;;;;;;;22.29;88.44;99914.97;5012510;28;20248;-64
2023/09/06 05:57:16;;;;;;;13.00;6.53;;;;;;;22.34;87.28;99927.72;5020274;28;20194;-64
2023/09/06 05:59:44;;;;;;;13.17;6.63;;;;;;;22.32;87.37;99928.00;5014058;28;20252;-64
2023/09/06 06:02:10;;;;;;;52.70;8.73;;;;;;;22.35;87.28;99940.19;5012666;28;20195;-64
2023/09/06 06:04:37;;;;;;;12.70;6.67;;;;;;;22.42;86.80;99941.56;5012364;28;20193;-64
2023/09/06 06:07:04;;;;;;;14.20;7.47;;;;;;;22.38;86.91;99940.47;5014308;28;20190;-64
2023/09/06 06:09:31;;;;;;;10.67;7.00;;;;;;;22.39;87.27;99946.72;5032132;28;20221;-65
2023/09/06 06:11:57;;;;;;;9.43;5.60;;;;;;;22.44;88.39;99947.56;5032219;28;20189;-64
2023/09/06 06:14:27;;;;;;;8.03;6.87;;;;;;;22.54;86.97;99952.25;5011049;28;20206;-64
2023/09/06 06:16:57;;;;;;;8.57;6.73;;;;;;;22.57;86.97;99955.25;5002076;28;20209;-64
2023/09/06 06:19:23;;;;;;;7.97;7.23;;;;;;;22.63;86.76;99956.91;5017228;28;20251;-65
2023/09/06 06:21:51;;;;;;;8.63;7.13;;;;;;;22.67;86.74;99966.13;5016677;28;20285;-64
2023/09/06 06:24:17;;;;;;;7.70;6.93;;;;;;;22.69;86.80;99963.97;5018552;28;20230;-63
2023/09/06 06:26:44;;;;;;;9.27;6.37;;;;;;;22.76;86.86;99975.41;4997155;28;20202;-63
2023/09/06 06:29:11;;;;;;;28.53;8.37;;;;;;;22.85;87.22;99975.69;4999328;28;20215;-63
2023/09/06 06:31:37;;;;;;;12.10;7.03;;;;;;;22.95;86.65;99981.97;4994608;28;20256;-64
2023/09/06 06:34:05;;;;;;;8.37;6.53;;;;;;;23.07;85.02;99982.56;5014096;28;20284;-64
2023/09/06 06:36:32;;;;;;;7.53;6.80;;;;;;;23.15;84.50;99984.78;4995794;28;20278;-63
2023/09/06 06:38:59;;;;;;;6.83;6.23;;;;;;;23.19;83.95;99994.00;4999616;28;20290;-65
2023/09/06 06:41:26;;;;;;;19.70;6.73;;;;;;;23.17;85.00;99988.03;5009506;28;20659;-69
2023/09/06 06:43:53;;;;;;;6.97;6.27;;;;;;;23.25;83.90;99986.75;5017764;28;20246;-70
2023/09/06 06:46:27;;;;;;;8.10;6.60;;;;;;;23.27;84.78;99988.09;5006817;28;20287;-68
2023/09/06 06:48:54;;;;;;;8.10;6.77;;;;;;;23.39;84.16;99991.38;5004252;28;20285;-67
2023/09/06 06:51:22;;;;;;;20.10;6.53;;;;;;;23.44;84.92;99996.03;4991595;28;20200;-68
2023/09/06 06:53:49;;;;;;;11.83;6.40;;;;;;;23.70;83.75;99993.09;4999362;28;20196;-69
2023/09/06 06:56:21;;;;;;;6.60;5.70;;;;;;;23.97;82.04;99992.88;5019509;28;20199;-69
2023/09/06 06:58:47;;;;;;;17.83;6.70;;;;;;;24.12;81.84;99999.13;5018780;28;20219;-68
2023/09/06 07:01:14;;;;;;;11.20;6.87;;;;;;;24.26;78.72;100008.34;5015726;28;20317;-69
2023/09/06 07:03:41;;;;;;;18.40;9.00;;;;;;;24.32;78.17;100004.56;5020358;28;20244;-69
2023/09/06 07:06:08;;;;;;;9.43;8.20;;;;;;;24.33;77.57;100014.31;5014163;28;20290;-68
2023/09/06 07:08:37;;;;;;;7.07;6.43;;;;;;;24.28;76.40;100011.63;5022028;28;20330;-69
2023/09/06 07:11:05;;;;;;;15.27;7.33;;;;;;;24.41;78.06;100011.06;5025366;28;20655;-67
2023/09/06 07:13:31;;;;;;;13.90;6.73;;;;;;;24.42;77.67;100007.25;4994871;28;20288;-68
2023/09/06 07:15:58;;;;;;;6.40;5.90;;;;;;;24.36;75.95;100012.94;5002513;28;20202;-68
2023/09/06 07:18:25;;;;;;;6.20;5.57;;;;;;;24.46;77.75;100000.19;5009166;28;20201;-68
2023/09/06 07:20:52;;;;;;;9.87;6.33;;;;;;;24.54;75.37;100010.50;5009063;28;20201;-69
2023/09/06 07:23:18;;;;;;;7.07;6.57;;;;;;;24.55;76.20;100006.66;4994359;28;20260;-68
2023/09/06 07:25:47;;;;;;;8.03;5.90;;;;;;;24.61;75.58;100005.63;5009723;28;20271;-68
2023/09/06 07:28:13;;;;;;;10.37;6.37;;;;;;;24.77;75.65;100009.94;4992068;28;20213;-69
2023/09/06 07:30:41;;;;;;;12.67;6.87;;;;;;;24.86;75.42;100004.72;4991238;28;20671;-68
2023/09/06 07:33:08;;;;;;;7.60;6.80;;;;;;;24.86;74.69;100008.28;5000041;28;20233;-67
2023/09/06 07:35:34;;;;;;;8.53;7.10;;;;;;;24.85;75.44;100001.22;4997231;28;20198;-68
2023/09/06 07:38:01;;;;;;;10.20;5.90;;;;;;;24.93;75.20;100000.66;4995558;28;20245;-66
2023/09/06 07:40:28;;;;;;;6.93;6.43;;;;;;;25.13;75.37;100004.38;4995351;28;20201;-68
2023/09/06 07:42:56;;;;;;;60.40;10.30;;;;;;;25.28;73.43;100015.22;4996301;28;20205;-66
2023/09/06 07:45:23;;;;;;;12.80;7.40;;;;;;;25.21;73.64;100010.06;4995525;28;20199;-65
2023/09/06 07:47:49;;;;;;;10.23;7.20;;;;;;;25.21;75.78;100009.22;5006503;28;20205;-66
2023/09/06 07:50:16;;;;;;;8.00;7.17;;;;;;;25.00;73.08;100014.75;4994700;28;20281;-65
2023/09/06 07:52:43;;;;;;;8.40;6.70;;;;;;;24.84;73.55;100013.16;4996614;28;20264;-66
2023/09/06 07:55:10;;;;;;;13.47;7.03;;;;;;;24.70;75.09;100017.56;5003500;28;20260;-67
2023/09/06 07:57:36;;;;;;;10.17;6.67;;;;;;;24.55;75.18;100012.09;4997707;28;20245;-66
2023/09/06 08:00:06;;;;;;;9.93;6.53;;;;;;;24.28;75.95;100000.75;4994885;28;20661;-65
2023/09/06 08:02:32;;;;;;;7.90;6.93;;;;;;;24.26;76.77;100008.34;5001785;28;20726;-65
2023/09/06 08:04:59;;;;;;;10.13;6.83;;;;;;;24.13;76.68;99998.03;5007951;28;20254;-65
2023/09/06 08:07:26;;;;;;;10.20;7.57;;;;;;;24.08;76.93;100000.75;5017248;28;20193;-68
2023/09/06 08:09:52;;;;;;;9.53;7.10;;;;;;;24.08;77.80;99995.31;5002533;28;20872;-67
2023/09/06 08:12:19;;;;;;;6.57;6.03;;;;;;;24.28;79.37;99989.88;4998049;28;20196;-67
2023/09/06 08:14:46;;;;;;;10.23;7.17;;;;;;;24.58;77.34;100006.13;5001726;28;20668;-67
2023/09/06 08:17:14;;;;;;;8.20;7.40;;;;;;;24.85;75.76;100006.66;5000902;28;20228;-67
2023/09/06 08:19:40;;;;;;;8.47;7.30;;;;;;;24.87;74.65;99998.22;4994300;28;20272;-67
2023/09/06 08:22:07;;;;;;;9.33;7.23;;;;;;;24.92;75.07;99996.28;5020060;28;20252;-67
2023/09/06 08:24:34;;;;;;;9.03;7.53;;;;;;;24.91;74.99;99997.38;5020547;28;20271;-67
2023/09/06 08:27:01;;;;;;;10.80;6.50;;;;;;;24.83;76.63;99997.94;5018387;28;20198;-66
2023/09/06 08:29:28;;;;;;;13.50;7.97;;;;;;;25.00;76.02;99998.44;5009426;28;20770;-68
2023/09/06 08:31:54;;;;;;;14.80;7.50;;;;;;;25.15;75.77;100004.91;4995416;28;20744;-68
2023/09/06 08:34:22;;;;;;;16.70;7.97;;;;;;;25.17;75.21;100002.72;5011938;28;20713;-67
2023/09/06 08:36:50;;;;;;;8.90;8.10;;;;;;;25.18;75.32;100010.59;5008173;28;20205;-70
2023/09/06 08:39:17;;;;;;;10.03;7.53;;;;;;;25.23;74.06;100007.06;4999755;28;20736;-69
2023/09/06 08:41:49;;;;;;;9.40;8.17;;;;;;;25.16;73.18;100017.41;4996435;28;20585;-69
2023/09/06 08:44:20;;;;;;;11.03;8.27;;;;;;;25.12;73.95;100006.28;4995139;28;20711;-68
2023/09/06 08:46:48;;;;;;;8.57;7.57;;;;;;;25.12;74.95;100006.28;5000068;28;20212;-67
2023/09/06 08:49:16;;;;;;;10.50;9.33;;;;;;;25.23;74.50;100007.06;5006526;28;20218;-67
2023/09/06 08:51:45;;;;;;;15.53;8.53;;;;;;;25.25;74.72;100007.59;5006030;28;20268;-68
2023/09/06 08:54:13;;;;;;;11.77;9.10;;;;;;;25.22;74.54;100008.13;4993651;28;20257;-67
2023/09/06 08:56:40;;;;;;;15.37;8.70;;;;;;;25.16;74.44;100006.53;5001843;28;20268;-68
2023/09/06 08:59:07;;;;;;;12.47;9.47;;;;;;;25.11;75.17;99998.41;4994835;28;20234;-67
2023/09/06 09:01:33;;;;;;;12.27;9.10;;;;;;;25.15;74.94;99999.47;5000270;28;20203;-71
2023/09/06 09:04:00;;;;;;;9.90;9.00;;;;;;;25.14;75.73;100000.56;4993246;28;20264;-70
2023/09/06 09:06:29;;;;;;;10.57;8.70;;;;;;;25.14;75.40;100001.38;5008028;28;20190;-73
2023/09/06 09:09:14;;;;;;;17.60;10.03;;;;;;;25.21;75.24;100001.91;5015537;28;20230;-71
2023/09/06 09:11:44;;;;;;;24.63;9.93;;;;;;;25.38;75.71;100009.72;5002027;28;20194;-71
2023/09/06 09:14:19;;;;;;;30.67;9.87;;;;;;;25.55;74.31;100002.81;4995385;28;20206;-71
2023/09/06 09:16:45;;;;;;;11.90;8.80;;;;;;;25.54;73.25;100000.38;5001332;28;20293;-71
2023/09/06 09:19:12;;;;;;;16.57;8.63;;;;;;;25.50;73.03;100002.88;4992906;28;20270;-70
2023/09/06 09:21:41;;;;;;;9.33;8.40;;;;;;;25.57;72.39;100013.44;4992749;28;20194;-72
2023/09/06 09:24:09;;;;;;;28.13;9.03;;;;;;;25.72;73.68;100010.63;4992437;28;20265;-73
2023/09/06 09:26:36;;;;;;;14.13;8.10;;;;;;;25.95;73.01;100020.84;5006084;28;20206;-70
2023/09/06 09:29:04;;;;;;;12.63;7.77;;;;;;;26.19;72.26;100021.72;5003900;28;20210;-70
2023/09/06 09:31:31;;;;;;;11.77;7.93;;;;;;;26.62;69.43;100020.84;4991899;28;20226;-70
2023/09/06 09:33:58;;;;;;;20.67;7.27;;;;;;;26.91;66.46;100018.91;4996008;28;20288;-70
2023/09/06 09:36:28;;;;;;;12.67;6.20;;;;;;;27.24;67.32;100012.53;4999672;28;20190;-71
2023/09/06 09:38:55;;;;;;;10.35;7.10;;;;;;;27.70;64.73;100008.06;4991385;28;20451;-71
2023/09/06 09:41:23;;;;;;;7.13;6.47;;;;;;;28.10;62.32;100011.00;4986819;28;20222;-70
2023/09/06 09:43:49;;;;;;;8.90;6.00;;;;;;;28.15;58.08;100010.94;4982914;28;20246;-71
2023/09/06 09:46:28;;;;;;;8.93;5.97;;;;;;;28.42;59.74;100008.28;4994524;28;20680;-71
2023/09/06 09:48:56;;;;;;;7.60;6.03;;;;;;;28.82;57.38;100012.19;5003604;28;20289;-70
2023/09/06 09:51:23;;;;;;;7.57;5.53;;;;;;;29.13;54.33;100013.28;5001270;28;20194;-70
2023/09/06 09:53:50;;;;;;;7.70;5.80;;;;;;;29.33;55.91;100021.06;4981144;28;20265;-71
2023/09/06 09:56:20;;;;;;;6.10;5.67;;;;;;;29.67;55.15;100020.63;4972432;28;20249;-73
2023/09/06 09:58:49;;;;;;;14.77;6.23;;;;;;;29.99;53.93;100021.22;4996934;28;20198;-73
2023/09/06 10:01:16;;;;;;;7.40;5.90;;;;;;;30.23;50.86;100021.75;4998763;28;20234;-72
2023/09/06 10:03:44;;;;;;;10.27;6.37;;;;;;;30.33;49.16;100026.19;5005650;28;20186;-72
2023/09/06 10:06:12;;;;;;;6.10;5.70;;;;;;;30.44;47.92;100017.38;5008405;28;20194;-72
2023/09/06 10:08:42;;;;;;;6.57;5.20;;;;;;;30.68;45.68;100011.53;5026882;28;20201;-72
2023/09/06 10:11:09;;;;;;;7.00;5.70;;;;;;;30.73;45.38;100004.00;5030789;28;20217;-71
2023/09/06 10:13:37;;;;;;;6.97;6.37;;;;;;;30.50;43.70;100005.13;5014939;28;20709;-69
2023/09/06 10:16:06;;;;;;;7.67;5.90;;;;;;;30.46;44.62;99993.19;5009886;28;20687;-70
2023/09/06 10:18:33;;;;;;;10.90;6.20;;;;;;;30.48;43.59;99993.69;5009534;28;20190;-69
2023/09/06 10:21:04;;;;;;;6.37;5.73;;;;;;;30.49;43.14;99986.28;5010040;28;20201;-72
2023/09/06 10:23:31;;;;;;;7.77;5.50;;;;;;;30.67;43.13;99998.94;5009684;28;20650;-69
2023/09/06 10:26:00;;;;;;;6.67;5.93;;;;;;;30.73;42.29;99989.47;5015037;28;20233;-71
2023/09/06 10:28:32;;;;;;;8.80;6.10;;;;;;;30.96;42.26;99997.34;5010336;28;20260;-69
2023/09/06 10:31:07;;;;;;;5.97;5.47;;;;;;;31.25;41.78;99983.06;5012831;28;20245;-69
2023/09/06 10:33:57;;;;;;;7.93;6.13;;;;;;;31.24;40.71;99993.22;5013986;28;20791;-70
2023/09/06 10:36:28;;;;;;;8.13;5.30;;;;;;;30.83;43.88;99986.47;5015327;28;20281;-69
2023/09/06 10:39:18;;;;;;;6.43;5.93;;;;;;;30.54;42.45;99986.94;5002178;28;20190;-69
2023/09/06 10:42:15;;;;;;;8.00;6.10;;;;;;;30.55;42.97;99985.84;5002035;28;20193;-69
2023/09/06 10:45:11;;;;;;;8.60;5.90;;;;;;;30.39;45.03;99981.88;5013930;28;20260;-70
2023/09/06 10:47:38;;;;;;;5.53;5.00;;;;;;;30.43;44.82;99980.13;5000281;28;20202;-71
2023/09/06 10:50:16;;;;;;;8.27;5.43;;;;;;;30.60;44.84;99971.97;4996180;28;20224;-70
2023/09/06 10:52:46;;;;;;;6.57;5.73;;;;;;;30.86;43.32;99972.91;5000578;28;20189;-69
2023/09/06 10:55:22;;;;;;;10.23;5.87;;;;;;;30.68;42.59;99962.16;5003349;28;20189;-69
2023/09/06 10:58:06;;;;;;;6.60;6.00;;;;;;;30.72;43.16;99969.47;4990373;28;20677;-69
2023/09/06 11:00:34;;;;;;;6.90;6.17;;;;;;;30.70;41.83;99965.44;5002448;28;20212;-69
2023/09/06 11:03:13;;;;;;;6.33;5.60;;;;;;;30.65;42.80;99963.59;5005979;28;20289;-69
2023/09/06 11:05:42;;;;;;;7.63;6.27;;;;;;;30.81;41.74;99967.56;4990545;28;20252;-68
2023/09/06 11:08:13;;;;;;;6.80;6.17;;;;;;;30.68;42.55;99959.41;4996199;28;20667;-69
2023/09/06 11:10:40;;;;;;;7.33;5.90;;;;;;;30.74;42.05;99956.25;4992641;28;20214;-68
2023/09/06 11:13:11;;;;;;;7.97;6.63;;;;;;;30.79;41.55;99956.09;4996081;28;20289;-68
2023/09/06 11:15:39;;;;;;;9.37;6.17;;;;;;;30.57;42.49;99944.34;4992605;28;20198;-69
2023/09/06 11:18:06;;;;;;;7.40;6.73;;;;;;;30.55;42.06;99946.63;4992384;28;20285;-68
2023/09/06 11:20:33;;;;;;;12.40;7.87;;;;;;;30.35;42.52;99945.22;4991228;28;20639;-68
2023/09/06 11:23:03;;;;;;;10.10;9.10;;;;;;;30.49;43.09;99940.44;5000586;28;20288;-68
2023/09/06 11:25:31;;;;;;;7.77;6.90;;;;;;;30.48;43.25;99941.59;5002369;28;20194;-69
2023/09/06 11:28:02;;;;;;;9.07;6.67;;;;;;;30.53;43.41;99933.22;5004246;28;20616;-68
2023/09/06 11:30:32;;;;;;;7.07;6.53;;;;;;;30.39;42.71;99931.69;4989467;28;20218;-68
2023/09/06 11:32:59;;;;;;;7.00;6.37;;;;;;;30.33;42.32;99933.75;4996387;28;20253;-67
2023/09/06 11:35:31;;;;;;;9.37;8.00;;;;;;;30.09;42.96;99927.00;5000897;28;20671;-70